This is the latest recevied weather packets stored in our database for station/object HS5NMF. If no packets are shown the sender has not sent any weather packets the latest 1 day(s).
| Time | Temp. | Humidity | Pressure | Rain* | Wind** | Luminosity | Snow |
|---|---|---|---|---|---|---|---|
| 1778090039 | 29.44° C | 82% | 976 hPa | - | - | 0 W/m² | - |
| 1778089716 | 29.44° C | 81% | 976 hPa | - | - | 0 W/m² | - |
| 1778088746 | 30° C | 78% | 977 hPa | - | - | 0 W/m² | - |
| 1778088423 | 30° C | 78% | 977 hPa | - | - | 0 W/m² | - |
| 1778088099 | 30° C | 77% | 977 hPa | - | - | 0 W/m² | - |
| 1778087775 | 30° C | 77% | 977 hPa | - | - | 0 W/m² | - |
| 1778086480 | 29.44° C | 80% | 977 hPa | - | - | 0 W/m² | - |
| 1778085186 | 30° C | 77% | 977 hPa | - | - | 0 W/m² | - |
| 1778084540 | 30° C | 78% | 977 hPa | - | - | 0 W/m² | - |
| 1778083892 | 30.56° C | 77% | 977 hPa | - | - | 0 W/m² | - |
| 1778083572 | 30° C | 78% | 977 hPa | - | - | 0 W/m² | - |
| 1778083246 | 29.44° C | 80% | 977 hPa | - | - | 0 W/m² | - |
| 1778082275 | 30° C | 78% | 977 hPa | - | - | 0 W/m² | - |
| 1778081306 | 31.11° C | 72% | 977 hPa | - | - | 0 W/m² | - |
| 1778080336 | 30° C | 80% | 977 hPa | - | - | 0 W/m² | - |
| 1778079365 | 31.11° C | 74% | 977 hPa | - | - | 0 W/m² | - |
| 1778079040 | 31.11° C | 76% | 977 hPa | - | - | 0 W/m² | - |
| 1778077092 | 31.11° C | 74% | 976 hPa | - | - | 0 W/m² | - |
| 1778075796 | 31.11° C | 73% | 976 hPa | - | - | 0 W/m² | - |
| 1778075470 | 31.67° C | 72% | 976 hPa | - | - | 0 W/m² | - |
| 1778075144 | 31.67° C | 72% | 976 hPa | - | - | 0 W/m² | - |
| 1778074172 | 31.67° C | 69% | 976 hPa | - | - | 0 W/m² | - |
| 1778073849 | 32.22° C | 68% | 976 hPa | - | - | 0 W/m² | - |
| 1778073203 | 31.11° C | 70% | 976 hPa | - | - | 0 W/m² | - |
| 1778072880 | 31.11° C | 70% | 976 hPa | - | - | 0 W/m² | - |
* Rain since midnight (hover to see other rain measurements)
** Current wind speed in m/s (hover to see current wind gust speed)